Time;durP1;ratioP1;P1;durP2;ratioP2;P2;SDS_P1;SDS_P2;PMS_P1;PMS_P2;Temp;Humidity;BMP_temperature;BMP_pressure;BME280_temperature;BME280_humidity;BME280_pressure;Samples;Min_cycle;Max_cycle;Signal;HPM_P1;HPM_P2
2022/10/14 00:01:08;;;;;;;33.98;19.80;;;;;;;4.41;79.58;101747.91;1745221;80;20980;-88
2022/10/14 00:03:36;;;;;;;33.63;18.42;;;;;;;4.43;79.66;101745.69;1744893;81;20964;-89
2022/10/14 00:06:09;;;;;;;32.08;19.45;;;;;;;4.46;79.74;101746.08;1744641;81;21370;-90
2022/10/14 00:08:38;;;;;;;34.08;18.60;;;;;;;4.49;79.83;101747.31;1744833;81;20925;-87
2022/10/14 00:11:09;;;;;;;37.75;20.77;;;;;;;4.52;80.00;101748.13;1744889;82;21221;-88
2022/10/14 00:13:36;;;;;;;31.25;18.17;;;;;;;4.54;80.09;101745.07;1744679;81;21382;-89
2022/10/14 00:16:03;;;;;;;33.05;17.30;;;;;;;4.59;80.26;101743.69;1745418;80;20942;-88
2022/10/14 00:18:31;;;;;;;32.83;19.12;;;;;;;4.64;80.37;101746.20;1747100;78;21402;-87
2022/10/14 00:21:00;;;;;;;33.25;19.17;;;;;;;4.69;80.44;101747.86;1744841;81;21457;-87
2022/10/14 00:23:29;;;;;;;33.08;17.15;;;;;;;4.73;80.49;101746.05;1744729;82;21828;-88
2022/10/14 00:25:55;;;;;;;30.85;19.55;;;;;;;4.75;80.42;101742.98;1744867;82;20901;-87
2022/10/14 00:28:23;;;;;;;32.88;17.60;;;;;;;4.80;80.50;101747.64;1744871;81;21382;-88
2022/10/14 00:30:55;;;;;;;30.92;17.00;;;;;;;4.84;80.48;101742.81;1744673;81;20885;-89
2022/10/14 00:33:22;;;;;;;32.45;18.40;;;;;;;4.88;80.31;101758.77;1744630;81;20893;-88
2022/10/14 00:35:58;;;;;;;32.33;18.82;;;;;;;4.92;80.12;101750.03;1744732;80;21193;-89
2022/10/14 00:38:26;;;;;;;31.82;18.27;;;;;;;4.94;80.08;101752.17;1745499;81;20932;-88
2022/10/14 00:40:53;;;;;;;31.87;16.70;;;;;;;4.98;80.02;101749.08;1745083;81;20869;-88
2022/10/14 00:43:24;;;;;;;30.80;15.32;;;;;;;5.02;80.01;101745.96;1744969;81;20877;-88
2022/10/14 00:45:51;;;;;;;24.32;14.05;;;;;;;5.06;80.03;101748.92;1744832;80;21386;-88
2022/10/14 00:48:20;;;;;;;28.17;15.45;;;;;;;5.11;80.01;101743.19;1744612;81;21221;-89
2022/10/14 00:50:50;;;;;;;28.80;16.17;;;;;;;5.15;80.03;101739.64;1747255;80;20991;-88
2022/10/14 00:53:17;;;;;;;25.60;15.20;;;;;;;5.19;80.09;101746.05;1758024;81;20893;-88
2022/10/14 00:55:44;;;;;;;28.02;16.10;;;;;;;5.24;80.10;101738.16;1758030;81;21469;-88
2022/10/14 00:58:11;;;;;;;27.70;15.80;;;;;;;5.30;80.12;101739.80;1758116;80;20900;-88
2022/10/14 01:00:38;;;;;;;28.15;15.08;;;;;;;5.34;80.13;101743.60;1760616;78;21118;-89
2022/10/14 01:03:09;;;;;;;28.55;15.88;;;;;;;5.40;80.18;101736.98;1758128;81;20920;-88
2022/10/14 01:05:48;;;;;;;26.90;14.23;;;;;;;5.45;80.22;101738.19;1757200;81;20963;-88
2022/10/14 01:08:23;;;;;;;26.00;13.93;;;;;;;5.50;80.21;101736.79;1758181;80;20920;-87
2022/10/14 01:11:13;;;;;;;29.40;14.47;;;;;;;5.55;80.14;101734.94;1757513;80;20880;-89
2022/10/14 01:13:43;;;;;;;28.30;14.38;;;;;;;5.59;80.12;101737.44;1758202;80;21239;-88
2022/10/14 01:16:17;;;;;;;30.82;14.05;;;;;;;5.66;80.21;101735.56;1757890;81;20880;-88
2022/10/14 01:19:03;;;;;;;40.30;16.42;;;;;;;5.71;80.22;101740.21;1758051;80;21335;-87
2022/10/14 01:21:45;;;;;;;24.50;14.10;;;;;;;5.75;80.26;101735.36;1757723;81;20900;-86
2022/10/14 01:24:36;;;;;;;25.68;13.25;;;;;;;5.81;80.30;101739.59;1757994;81;20927;-87
2022/10/14 01:27:26;;;;;;;28.87;14.68;;;;;;;5.84;80.16;101744.71;1758195;81;21992;-87
2022/10/14 01:30:17;;;;;;;23.80;14.00;;;;;;;5.87;80.36;101740.76;1758160;81;20905;-89
2022/10/14 01:33:12;;;;;;;23.70;13.93;;;;;;;5.92;80.43;101744.11;1758015;81;20940;-87
2022/10/14 01:36:05;;;;;;;25.85;14.63;;;;;;;5.97;80.38;101744.03;1757029;81;20940;-89
2022/10/14 01:38:42;;;;;;;22.00;13.32;;;;;;;6.00;80.35;101741.34;1758226;81;21003;-89
2022/10/14 01:41:19;;;;;;;31.05;15.23;;;;;;;6.04;80.38;101742.99;1760290;78;21141;-87
2022/10/14 01:43:47;;;;;;;25.55;13.95;;;;;;;6.06;80.32;101735.16;1759996;78;20940;-89
2022/10/14 01:46:16;;;;;;;29.10;14.93;;;;;;;6.10;80.40;101739.41;1760497;78;20903;-88
2022/10/14 01:48:52;;;;;;;29.77;15.13;;;;;;;6.14;80.41;101739.30;1760942;78;20901;-89
2022/10/14 01:51:29;;;;;;;24.47;13.13;;;;;;;6.17;80.37;101744.42;1756309;80;21604;-88
2022/10/14 01:54:03;;;;;;;28.73;14.75;;;;;;;6.21;80.48;101738.70;1743337;80;21099;-87
2022/10/14 01:56:31;;;;;;;32.17;17.98;;;;;;;6.25;80.49;101742.95;1744810;81;21339;-86
2022/10/14 01:58:59;;;;;;;58.83;31.55;;;;;;;6.28;80.43;101742.87;1744840;81;20849;-89
2022/10/14 02:01:26;;;;;;;42.05;22.25;;;;;;;6.33;80.47;101750.56;1744726;81;20960;-88
2022/10/14 02:03:52;;;;;;;39.00;20.52;;;;;;;6.35;80.46;101744.88;1734661;82;20999;-89
2022/10/14 02:06:34;;;;;;;38.48;20.52;;;;;;;6.37;80.36;101736.13;1747623;82;21803;-85
2022/10/14 02:09:22;;;;;;;36.95;17.40;;;;;;;6.40;80.53;101742.59;1747242;81;20972;-88
2022/10/14 02:12:04;;;;;;;37.55;19.45;;;;;;;6.43;80.60;101752.92;1744951;81;20928;-89
2022/10/14 02:14:44;;;;;;;40.12;19.25;;;;;;;6.46;80.59;101744.16;1745033;81;20928;-88
2022/10/14 02:17:23;;;;;;;35.85;16.40;;;;;;;6.48;80.63;101735.86;1725218;81;20877;-88
2022/10/14 02:20:04;;;;;;;35.30;16.45;;;;;;;6.51;80.52;101735.78;1742757;81;21259;-88
2022/10/14 02:22:42;;;;;;;34.05;16.73;;;;;;;6.51;80.58;101737.53;1744812;82;20920;-88
2022/10/14 02:25:14;;;;;;;36.93;16.32;;;;;;;6.52;80.57;101737.51;1746751;78;21917;-87
2022/10/14 02:27:43;;;;;;;30.43;15.90;;;;;;;6.54;80.67;101733.57;1745633;81;20858;-88
2022/10/14 02:30:11;;;;;;;29.82;13.32;;;;;;;6.56;80.83;101733.09;1744740;81;20850;-88
2022/10/14 02:32:38;;;;;;;29.70;13.50;;;;;;;6.59;80.90;101733.84;1744675;80;21721;-89
2022/10/14 02:35:05;;;;;;;29.60;14.87;;;;;;;6.63;80.97;101740.70;1744510;81;21490;-90
2022/10/14 02:37:32;;;;;;;22.00;13.03;;;;;;;6.67;80.97;101736.27;1744639;81;20897;-88
2022/10/14 02:40:05;;;;;;;22.65;13.95;;;;;;;6.71;80.86;101744.84;1744636;81;20901;-88
2022/10/14 02:42:32;;;;;;;30.15;15.18;;;;;;;6.73;80.68;101740.45;1744844;81;21319;-89
2022/10/14 02:44:59;;;;;;;25.40;13.48;;;;;;;6.76;80.63;101735.15;1744655;81;21123;-88
2022/10/14 02:47:27;;;;;;;29.85;15.20;;;;;;;6.77;80.59;101731.20;1744673;81;20974;-90
2022/10/14 02:49:54;;;;;;;26.82;13.15;;;;;;;6.78;80.44;101732.94;1734120;82;20960;-89
2022/10/14 02:52:24;;;;;;;23.40;12.78;;;;;;;6.80;80.39;101736.36;1744619;81;20869;-88
2022/10/14 02:54:52;;;;;;;26.90;12.88;;;;;;;6.81;80.31;101738.52;1744775;80;20924;-90
2022/10/14 02:57:18;;;;;;;32.95;16.50;;;;;;;6.81;80.27;101737.20;1734111;82;21820;-87
2022/10/14 02:59:47;;;;;;;27.98;13.98;;;;;;;6.82;80.27;101750.64;1744599;81;20877;-88
2022/10/14 03:02:13;;;;;;;31.40;15.35;;;;;;;6.83;80.31;101745.84;1744775;81;20936;-88
2022/10/14 03:04:40;;;;;;;41.42;17.05;;;;;;;6.84;80.34;101741.03;1744509;80;21055;-90
2022/10/14 03:07:07;;;;;;;41.00;18.90;;;;;;;6.83;80.27;101745.39;1746178;80;20948;-90
2022/10/14 03:09:36;;;;;;;44.18;23.07;;;;;;;6.84;80.23;101739.72;1746256;78;21232;-89
2022/10/14 03:12:06;;;;;;;39.15;19.30;;;;;;;6.85;80.09;101738.84;1744613;81;20845;-88
2022/10/14 03:14:33;;;;;;;33.80;15.80;;;;;;;6.84;80.04;101741.03;1734521;82;20857;-88
2022/10/14 03:17:02;;;;;;;40.10;17.05;;;;;;;6.86;80.12;101735.33;1745065;81;20870;-89
2022/10/14 03:19:31;;;;;;;34.85;17.30;;;;;;;6.87;80.23;101733.14;1745296;80;21340;-90
2022/10/14 03:21:58;;;;;;;30.32;15.20;;;;;;;6.88;80.22;101732.23;1745222;81;21054;-89
2022/10/14 03:24:25;;;;;;;32.73;16.05;;;;;;;6.88;80.13;101727.47;1744714;81;20952;-89
2022/10/14 03:26:53;;;;;;;29.55;14.53;;;;;;;6.90;80.19;101730.90;1728810;82;20920;-89
2022/10/14 03:29:22;;;;;;;30.60;15.15;;;;;;;6.92;80.16;101729.11;1744627;80;21335;-89
2022/10/14 03:31:59;;;;;;;28.12;13.95;;;;;;;6.89;80.11;101725.26;1744179;81;20956;-89
2022/10/14 03:34:30;;;;;;;29.55;14.18;;;;;;;6.90;80.09;101731.75;1744631;80;21848;-90
2022/10/14 03:37:05;;;;;;;;;;;;;;;6.88;80.19;101733.53;1747284;81;20908;-89
2022/10/14 03:39:33;;;;;;;28.60;12.88;;;;;;;6.87;80.32;101730.53;1744937;80;20097;-89
2022/10/14 03:42:02;;;;;;;26.30;13.95;;;;;;;6.87;80.32;101729.23;1744983;81;21760;-91
2022/10/14 03:44:31;;;;;;;27.77;14.18;;;;;;;6.88;80.54;101732.23;1744844;81;21379;-89
2022/10/14 03:47:15;;;;;;;29.30;14.47;;;;;;;6.91;80.61;101729.53;1745299;81;21811;-90
2022/10/14 03:49:42;;;;;;;22.00;12.63;;;;;;;6.92;80.68;101731.72;1746349;82;20849;-89
2022/10/14 03:52:10;;;;;;;27.85;12.95;;;;;;;6.92;80.66;101733.87;1745332;81;20928;-89
2022/10/14 03:54:37;;;;;;;23.77;13.05;;;;;;;6.93;80.61;101734.26;1735478;82;20960;-89
2022/10/14 03:57:04;;;;;;;30.20;14.75;;;;;;;6.94;80.77;101739.05;1758544;81;20983;-88
2022/10/14 03:59:34;;;;;;;24.27;12.98;;;;;;;6.95;80.79;101737.69;1758455;81;20986;-91
2022/10/14 04:02:01;;;;;;;24.25;12.37;;;;;;;6.98;80.89;101737.63;1758434;81;20916;-90
2022/10/14 04:04:31;;;;;;;24.40;12.18;;;;;;;7.00;80.96;101737.14;1758385;81;20940;-90
2022/10/14 04:06:59;;;;;;;28.30;14.50;;;;;;;7.02;80.88;101740.98;1759281;81;20880;-89
2022/10/14 04:09:27;;;;;;;29.18;14.40;;;;;;;7.04;80.89;101740.04;1759556;81;20904;-90
2022/10/14 04:11:56;;;;;;;31.23;15.43;;;;;;;7.05;80.79;101740.92;1758808;81;21155;-88
2022/10/14 04:14:41;;;;;;;28.17;14.33;;;;;;;7.06;80.85;101746.07;1758419;80;20884;-89
2022/10/14 04:17:08;;;;;;;24.82;13.25;;;;;;;7.07;80.86;101743.04;1742277;81;20961;-90
2022/10/14 04:19:35;;;;;;;21.48;13.98;;;;;;;7.08;80.84;101741.28;1758713;81;21473;-89
2022/10/14 04:22:03;;;;;;;27.37;17.05;;;;;;;7.10;80.82;101745.55;1741929;81;20941;-89
2022/10/14 04:24:32;;;;;;;28.07;15.93;;;;;;;7.12;80.77;101740.30;1758916;81;21290;-88
2022/10/14 04:26:59;;;;;;;25.72;14.38;;;;;;;7.15;80.78;101742.81;1758468;81;20889;-89
2022/10/14 04:29:33;;;;;;;22.60;12.60;;;;;;;7.18;80.76;101740.11;1759565;81;20868;-89
2022/10/14 04:32:02;;;;;;;19.45;12.07;;;;;;;7.18;80.56;101740.11;1760426;78;20916;-91
2022/10/14 04:34:29;;;;;;;28.27;12.47;;;;;;;7.21;80.58;101738.73;1760998;78;20971;-88
2022/10/14 04:36:55;;;;;;;15.72;10.18;;;;;;;7.23;80.43;101736.48;1759080;81;21457;-88
2022/10/14 04:39:24;;;;;;;14.38;9.45;;;;;;;7.27;80.38;101735.97;1759907;81;20932;-88
2022/10/14 04:41:51;;;;;;;16.55;10.10;;;;;;;7.31;80.20;101741.47;1761380;80;20873;-89
2022/10/14 04:44:20;;;;;;;18.35;9.45;;;;;;;7.34;80.06;101739.25;1761359;81;20889;-88
2022/10/14 04:46:48;;;;;;;18.95;10.32;;;;;;;7.36;80.00;101744.83;1761049;81;20869;-87
2022/10/14 04:49:16;;;;;;;20.25;11.05;;;;;;;7.39;79.95;101741.27;1761228;78;21218;-90
2022/10/14 04:51:45;;;;;;;18.48;10.25;;;;;;;7.40;79.86;101737.33;1760157;78;21030;-90
2022/10/14 04:54:19;;;;;;;;;;;;;;;7.42;79.66;101742.02;1685289;82;20915;-89
2022/10/14 04:56:53;;;;;;;14.70;9.68;;;;;;;7.41;79.68;101741.63;1659956;83;20075;-89
2022/10/14 04:59:20;;;;;;;17.02;9.43;;;;;;;7.41;79.75;101744.23;1648414;85;20933;-90
2022/10/14 05:01:50;;;;;;;14.55;9.30;;;;;;;7.42;79.88;101747.24;1614235;87;21396;-89
2022/10/14 05:04:17;;;;;;;12.18;8.53;;;;;;;7.47;79.76;101751.91;1614533;87;21123;-90
2022/10/14 05:06:46;;;;;;;16.82;8.75;;;;;;;7.48;79.67;101748.37;1615023;87;20949;-91
2022/10/14 05:09:14;;;;;;;11.63;7.55;;;;;;;7.51;79.55;101748.73;1649153;83;21063;-91
2022/10/14 05:11:41;;;;;;;10.95;7.12;;;;;;;7.53;79.53;101752.16;1649300;83;20929;-89
2022/10/14 05:14:07;;;;;;;12.95;7.62;;;;;;;7.55;79.58;101748.20;1649355;83;21194;-88
2022/10/14 05:16:35;;;;;;;8.33;6.85;;;;;;;7.57;79.69;101751.63;1649517;83;21004;-89
2022/10/14 05:19:04;;;;;;;14.58;8.15;;;;;;;7.59;79.64;101751.14;1650027;83;20929;-89
2022/10/14 05:21:31;;;;;;;15.50;6.87;;;;;;;7.65;79.17;101752.27;1649301;83;20978;-90
2022/10/14 05:24:00;;;;;;;15.75;8.95;;;;;;;7.71;78.59;101752.06;1648902;83;20897;-88
2022/10/14 05:26:28;;;;;;;22.75;10.13;;;;;;;7.79;78.29;101751.85;1649628;83;21113;-90
2022/10/14 05:28:55;;;;;;;15.32;9.80;;;;;;;7.86;78.35;101756.83;1649979;83;21033;-90
2022/10/14 05:31:22;;;;;;;19.37;10.75;;;;;;;7.95;78.08;101749.16;1631495;83;20975;-89
2022/10/14 05:33:51;;;;;;;13.43;8.65;;;;;;;8.03;77.80;101745.87;1665525;80;20964;-91
2022/10/14 05:36:17;;;;;;;13.53;9.40;;;;;;;8.10;77.52;101754.38;1666954;80;21134;-89
2022/10/14 05:38:45;;;;;;;12.85;9.08;;;;;;;8.16;77.44;101754.19;1665220;84;22104;-89
2022/10/14 05:41:13;;;;;;;16.30;10.25;;;;;;;8.24;77.27;101759.16;1722327;83;20895;-89
2022/10/14 05:43:42;;;;;;;13.40;10.32;;;;;;;8.31;77.21;101760.66;1720440;82;20880;-90
2022/10/14 05:46:09;;;;;;;16.45;10.20;;;;;;;8.38;77.04;101762.63;1720452;82;21389;-91
2022/10/14 05:48:38;;;;;;;16.93;10.98;;;;;;;8.44;76.87;101762.47;1720506;82;20951;-89
2022/10/14 05:51:05;;;;;;;25.60;9.78;;;;;;;8.52;76.84;101771.38;1720364;82;21547;-89
2022/10/14 05:53:33;;;;;;;19.02;11.12;;;;;;;8.59;76.76;101772.42;1720042;82;20876;-89
2022/10/14 05:56:08;;;;;;;15.85;8.70;;;;;;;8.65;76.61;101769.61;1698715;81;21438;-90
2022/10/14 05:58:36;;;;;;;13.90;7.80;;;;;;;8.72;76.51;101762.41;1755446;81;20952;-88
2022/10/14 06:01:06;;;;;;;12.70;8.13;;;;;;;8.77;76.35;101757.88;1753650;80;20849;-88
2022/10/14 06:03:33;;;;;;;10.10;6.85;;;;;;;8.84;76.12;101765.91;1752714;81;21079;-87
2022/10/14 06:06:00;;;;;;;12.80;6.62;;;;;;;8.91;75.95;101763.50;1753055;81;20862;-87
2022/10/14 06:08:30;;;;;;;12.35;6.95;;;;;;;8.99;75.77;101766.30;1753041;82;20889;-87
2022/10/14 06:11:01;;;;;;;9.13;6.90;;;;;;;9.06;75.48;101766.02;1752939;81;20893;-89
2022/10/14 06:13:29;;;;;;;10.03;6.25;;;;;;;9.13;75.09;101763.58;1734563;82;20991;-89
2022/10/14 06:15:56;;;;;;;9.28;6.17;;;;;;;9.21;74.80;101766.39;1752591;81;21794;-89
2022/10/14 06:18:22;;;;;;;15.68;8.35;;;;;;;9.28;74.48;101770.03;1752716;81;20990;-87
2022/10/14 06:20:52;;;;;;;12.10;7.72;;;;;;;9.35;74.10;101766.73;1752839;81;20912;-87
2022/10/14 06:23:19;;;;;;;8.58;6.15;;;;;;;9.40;73.75;101767.41;1753059;81;21875;-89
2022/10/14 06:25:45;;;;;;;12.20;7.37;;;;;;;9.45;73.63;101765.94;1753121;81;20968;-88
2022/10/14 06:28:12;;;;;;;11.55;6.83;;;;;;;9.47;73.59;101762.80;1753000;81;21117;-89
2022/10/14 06:30:38;;;;;;;7.17;6.15;;;;;;;9.49;73.46;101767.10;1753293;81;20932;-90
2022/10/14 06:33:05;;;;;;;9.38;7.00;;;;;;;9.54;73.16;101769.09;1753833;81;21489;-90
2022/10/14 06:35:32;;;;;;;16.75;6.80;;;;;;;9.59;72.90;101763.67;1753519;81;21415;-89
2022/10/14 06:38:01;;;;;;;13.45;6.28;;;;;;;9.63;72.81;101769.20;1753421;81;20849;-88
2022/10/14 06:40:28;;;;;;;9.98;6.53;;;;;;;9.68;72.55;101769.02;1754930;82;21692;-89
2022/10/14 06:42:57;;;;;;;10.00;6.67;;;;;;;9.72;72.25;101768.00;1754526;79;20984;-90
2022/10/14 06:45:24;;;;;;;10.05;6.90;;;;;;;9.76;72.09;101768.28;1712015;82;20928;-90
2022/10/14 06:47:52;;;;;;;12.68;6.70;;;;;;;9.81;72.09;101770.27;1755580;78;20963;-90
2022/10/14 06:50:19;;;;;;;14.28;6.87;;;;;;;9.89;71.93;101771.27;1755812;78;20897;-89
2022/10/14 06:52:46;;;;;;;10.78;7.50;;;;;;;9.95;71.92;101769.27;1755727;78;21374;-88
2022/10/14 06:55:13;;;;;;;11.68;6.58;;;;;;;10.02;71.96;101771.19;1755580;78;20948;-88
2022/10/14 06:57:40;;;;;;;13.03;7.05;;;;;;;10.06;71.56;101771.93;1759154;78;21138;-89
2022/10/14 07:00:08;;;;;;;12.40;7.33;;;;;;;10.10;70.93;101770.44;1760749;78;21085;-89
2022/10/14 07:02:39;;;;;;;13.28;7.33;;;;;;;10.13;70.69;101776.86;1760670;78;20939;-89
2022/10/14 07:05:05;;;;;;;10.53;6.62;;;;;;;10.15;70.47;101773.72;1760920;78;21120;-90
2022/10/14 07:07:33;;;;;;;20.35;10.78;;;;;;;10.20;70.26;101772.23;1760949;78;20936;-91
2022/10/14 07:10:00;;;;;;;11.65;6.50;;;;;;;10.27;70.23;101774.14;1760898;78;20934;-90
2022/10/14 07:12:27;;;;;;;8.23;5.85;;;;;;;10.33;70.19;101779.18;1760549;78;20924;-90
2022/10/14 07:14:53;;;;;;;12.88;6.92;;;;;;;10.41;70.15;101778.42;1760813;78;20935;-90
2022/10/14 07:17:21;;;;;;;11.83;7.35;;;;;;;10.48;69.84;101773.78;1759774;81;20919;-91
2022/10/14 07:19:50;;;;;;;8.55;6.37;;;;;;;10.56;69.58;101779.55;1758942;81;20974;-91
2022/10/14 07:22:17;;;;;;;11.10;7.12;;;;;;;10.64;69.45;101780.09;1759262;81;20971;-90
2022/10/14 07:24:44;;;;;;;17.55;6.35;;;;;;;10.71;69.12;101778.91;1760709;78;20908;-90
2022/10/14 07:27:11;;;;;;;9.78;6.58;;;;;;;10.77;69.25;101777.81;1759214;80;20904;-91
2022/10/14 07:29:38;;;;;;;10.95;7.00;;;;;;;10.82;69.27;101778.46;1759201;80;21126;-91
2022/10/14 07:32:05;;;;;;;10.68;6.67;;;;;;;10.88;68.90;101778.20;1759168;80;20877;-90
2022/10/14 07:34:33;;;;;;;14.07;6.85;;;;;;;10.91;68.54;101776.75;1759302;81;21365;-91
2022/10/14 07:37:00;;;;;;;10.28;7.15;;;;;;;10.94;68.43;101772.70;1759340;81;20900;-90
2022/10/14 07:39:27;;;;;;;10.00;6.87;;;;;;;11.02;68.29;101778.92;1759545;80;21473;-88
2022/10/14 07:41:54;;;;;;;11.68;6.60;;;;;;;11.11;68.16;101778.52;1759901;81;21088;-90
2022/10/14 07:44:21;;;;;;;8.60;5.95;;;;;;;11.15;67.99;101768.28;1759479;80;20885;-90
2022/10/14 07:46:48;;;;;;;11.12;6.97;;;;;;;11.22;67.74;101781.14;1759867;80;21421;-91
2022/10/14 07:49:19;;;;;;;12.45;6.55;;;;;;;11.25;67.31;101782.31;1759256;81;20881;-91
2022/10/14 07:51:46;;;;;;;11.85;7.12;;;;;;;11.26;67.08;101777.47;1758912;80;21024;-89
2022/10/14 07:54:17;;;;;;;9.70;6.55;;;;;;;11.27;67.00;101780.03;1758970;80;21335;-90
2022/10/14 07:56:44;;;;;;;11.80;6.72;;;;;;;11.27;66.95;101783.09;1758785;80;20924;-88
2022/10/14 07:59:12;;;;;;;14.75;6.75;;;;;;;11.29;66.79;101779.48;1759801;78;20881;-90
2022/10/14 08:01:40;;;;;;;9.28;5.95;;;;;;;11.33;66.64;101778.89;1744226;80;20912;-90
2022/10/14 08:04:10;;;;;;;11.28;6.20;;;;;;;11.37;66.77;101777.84;1760929;78;20983;-90
2022/10/14 08:06:38;;;;;;;10.63;6.58;;;;;;;11.40;66.71;101782.51;1761082;78;21243;-92
2022/10/14 08:09:05;;;;;;;12.78;7.40;;;;;;;11.49;66.49;101776.42;1759753;81;20991;-89
2022/10/14 08:11:32;;;;;;;10.70;7.22;;;;;;;11.56;66.35;101776.09;1760146;81;21444;-90
2022/10/14 08:13:59;;;;;;;14.40;7.75;;;;;;;11.64;65.96;101773.11;1760079;80;20932;-90
2022/10/14 08:16:29;;;;;;;10.05;6.55;;;;;;;11.67;65.41;101771.67;1743159;81;21473;-90
2022/10/14 08:19:00;;;;;;;14.00;7.25;;;;;;;11.72;65.09;101779.34;1760045;81;20924;-92
2022/10/14 08:21:29;;;;;;;9.90;6.85;;;;;;;11.74;64.89;101778.34;1760150;80;20928;-90
2022/10/14 08:23:55;;;;;;;11.45;9.73;;;;;;;11.78;64.74;101777.28;1760292;81;20987;-90
2022/10/14 08:26:34;;;;;;;13.83;7.33;;;;;;;11.84;64.96;101773.50;1761513;80;20931;-90
2022/10/14 08:29:03;;;;;;;11.43;8.25;;;;;;;11.88;64.89;101767.21;1791580;80;21384;-89
2022/10/14 08:31:32;;;;;;;13.62;8.15;;;;;;;11.94;64.93;101770.88;1791498;78;20899;-90
2022/10/14 08:33:59;;;;;;;14.60;8.50;;;;;;;12.05;64.85;101774.31;1791424;80;21020;-90
2022/10/14 08:36:25;;;;;;;14.53;7.78;;;;;;;12.14;65.01;101763.78;1764996;80;21006;-90
2022/10/14 08:38:54;;;;;;;12.93;6.83;;;;;;;12.25;64.63;101765.46;1791231;80;20899;-88
2022/10/14 08:41:49;;;;;;;10.65;6.72;;;;;;;12.38;64.31;101767.00;1765095;78;20860;-91
2022/10/14 08:44:25;;;;;;;;;;;;;;;12.49;64.06;101755.95;1767286;80;23982;-92
2022/10/14 08:46:59;;;;;;;10.28;7.17;;;;;;;12.62;63.68;101760.52;1790978;80;20508;-90
2022/10/14 08:49:55;;;;;;;10.20;6.70;;;;;;;12.73;63.38;101764.41;1791870;77;20950;-88
2022/10/14 08:52:36;;;;;;;11.33;6.08;;;;;;;12.83;62.69;101767.81;1763790;80;21361;-91
2022/10/14 08:55:29;;;;;;;10.70;7.00;;;;;;;12.93;62.59;101768.66;1789744;80;20876;-91
2022/10/14 08:58:20;;;;;;;10.88;6.33;;;;;;;12.99;62.06;101756.02;1786443;79;21388;-91
2022/10/14 09:00:50;;;;;;;9.03;6.30;;;;;;;13.10;62.10;101755.47;1782709;80;20967;-91
2022/10/14 09:03:25;;;;;;;9.40;6.42;;;;;;;13.22;61.61;101758.76;1752800;80;20923;-88
2022/10/14 09:06:00;;;;;;;10.15;6.60;;;;;;;13.29;61.21;101752.73;1782640;79;20860;-87
2022/10/14 09:08:41;;;;;;;9.73;5.42;;;;;;;13.40;60.94;101752.16;1782253;80;20923;-88
2022/10/14 09:11:12;;;;;;;9.43;6.00;;;;;;;13.53;60.44;101753.20;1782785;80;21110;-89
2022/10/14 09:13:43;;;;;;;12.53;7.97;;;;;;;13.65;60.49;101752.55;1782074;80;20919;-91
2022/10/14 09:16:24;;;;;;;11.80;7.72;;;;;;;13.76;60.41;101755.05;1782432;80;20899;-89
2022/10/14 09:19:00;;;;;;;10.82;6.87;;;;;;;13.85;59.84;101756.72;1782601;80;20884;-90
2022/10/14 09:21:38;;;;;;;9.85;6.45;;;;;;;13.97;59.00;101753.02;1783514;78;20927;-89
2022/10/14 09:24:34;;;;;;;12.82;6.72;;;;;;;14.08;58.64;101752.78;1783914;80;21006;-89
2022/10/14 09:27:12;;;;;;;9.10;5.75;;;;;;;14.22;57.58;101751.15;1752079;80;21306;-89
2022/10/14 09:29:58;;;;;;;10.88;6.17;;;;;;;14.33;57.45;101747.90;1782293;79;20883;-87
2022/10/14 09:32:35;;;;;;;6.72;5.03;;;;;;;14.46;56.78;101740.49;1783412;77;21408;-89
2022/10/14 09:35:03;;;;;;;11.08;6.42;;;;;;;14.75;54.42;101747.20;1781639;80;20907;-89
2022/10/14 09:37:34;;;;;;;10.68;5.83;;;;;;;14.87;54.48;101739.00;1781457;79;21091;-90
2022/10/14 09:40:14;;;;;;;9.73;5.85;;;;;;;14.87;54.48;101739.00;1781304;80;20900;-91
2022/10/14 09:43:04;;;;;;;10.25;7.70;;;;;;;14.93;54.44;101746.09;1781382;80;20864;-89
2022/10/14 09:46:02;;;;;;;9.98;6.33;;;;;;;15.00;54.23;101739.97;1781216;80;20981;-90
2022/10/14 09:48:49;;;;;;;10.15;6.15;;;;;;;15.04;53.87;101745.92;1781773;79;21377;-89
2022/10/14 09:51:31;;;;;;;12.45;6.20;;;;;;;15.09;53.70;101740.72;1782347;80;21464;-89
2022/10/14 09:54:01;;;;;;;8.28;6.15;;;;;;;15.15;53.60;101742.63;1782170;80;20995;-90
2022/10/14 09:56:41;;;;;;;10.18;5.47;;;;;;;15.30;53.47;101739.89;1753245;80;20966;-90
2022/10/14 09:59:18;;;;;;;11.15;6.00;;;;;;;15.49;52.83;101737.41;1787963;80;20919;-87
2022/10/14 10:02:04;;;;;;;10.80;6.12;;;;;;;15.67;52.06;101742.88;1788497;80;20879;-89
2022/10/14 10:04:45;;;;;;;9.65;6.08;;;;;;;15.95;52.00;101735.84;1788358;80;22426;-89
2022/10/14 10:07:33;;;;;;;8.60;4.80;;;;;;;16.24;50.70;101726.47;1787619;79;20860;-90
2022/10/14 10:10:19;;;;;;;8.10;4.40;;;;;;;16.38;49.58;101734.33;1787493;79;21708;-89
2022/10/14 10:12:47;;;;;;;9.93;5.47;;;;;;;16.56;49.12;101731.80;1787262;80;20974;-89
2022/10/14 10:15:20;;;;;;;8.28;4.55;;;;;;;16.77;48.74;101729.95;1788855;77;20982;-89
2022/10/14 10:17:47;;;;;;;8.55;4.90;;;;;;;17.02;48.38;101729.62;1788603;80;21336;-90
2022/10/14 10:20:34;;;;;;;7.72;4.22;;;;;;;17.26;47.64;101731.87;1787977;80;20880;-91
2022/10/14 10:23:19;;;;;;;11.63;4.80;;;;;;;17.46;46.56;101730.46;1788076;79;20970;-92
2022/10/14 10:25:47;;;;;;;6.30;4.92;;;;;;;17.61;46.29;101727.20;1760267;80;20900;-91
2022/10/14 10:28:20;;;;;;;8.13;4.35;;;;;;;17.81;45.13;101727.08;1787982;80;20914;-90
2022/10/14 10:31:36;;;;;;;8.33;5.17;;;;;;;17.90;44.70;101729.09;1787439;80;21263;-91
2022/10/14 10:34:26;;;;;;;8.55;4.58;;;;;;;17.99;44.42;101726.24;1787170;80;20863;-91
2022/10/14 10:37:09;;;;;;;6.72;5.28;;;;;;;18.18;44.53;101722.56;1783921;79;20868;-91
2022/10/14 10:39:56;;;;;;;20.30;17.90;;;;;;;18.30;43.38;101718.17;1787422;79;21456;-91
2022/10/14 10:42:34;;;;;;;21.35;15.05;;;;;;;18.46;43.82;101715.69;1787443;80;20911;-92
2022/10/14 10:45:41;;;;;;;8.05;6.03;;;;;;;18.64;43.44;101719.59;1750425;82;21274;-92
2022/10/14 10:48:33;;;;;;;8.18;4.92;;;;;;;18.80;43.03;101719.28;1749796;82;21560;-90
2022/10/14 10:51:24;;;;;;;10.23;5.80;;;;;;;18.85;41.93;101715.77;1724384;83;20932;-91
2022/10/14 10:54:27;;;;;;;10.68;5.37;;;;;;;18.80;41.99;101716.62;1724105;83;20885;-90
2022/10/14 10:56:58;;;;;;;9.10;5.08;;;;;;;18.63;41.63;101711.23;1725724;82;20886;-90
2022/10/14 10:59:59;;;;;;;10.08;4.47;;;;;;;18.48;41.90;101706.63;1717993;82;20913;-91
2022/10/14 11:02:47;;;;;;;5.95;4.12;;;;;;;18.34;40.89;101703.70;1706207;83;21047;-91
2022/10/14 11:12:12;;;;;;;6.87;3.55;;;;;;;18.05;40.42;101707.19;1825926;77;20986;-90
2022/10/14 11:15:22;;;;;;;8.53;3.52;;;;;;;18.05;40.93;101695.73;1823474;78;21439;-91
2022/10/14 11:18:13;;;;;;;6.08;2.98;;;;;;;18.02;41.82;101698.97;1824832;78;20840;-91
2022/10/14 11:21:28;;;;;;;5.50;3.20;;;;;;;17.91;40.74;101693.61;1823991;78;20906;-89
2022/10/14 11:24:38;;;;;;;5.65;3.92;;;;;;;17.88;41.63;101694.34;1822967;78;20955;-90
2022/10/14 11:27:17;;;;;;;6.37;4.00;;;;;;;17.89;41.23;101689.39;1823567;78;20844;-89
2022/10/14 11:30:21;;;;;;;7.40;4.70;;;;;;;17.84;41.30;101690.22;1823735;78;21763;-89
2022/10/14 11:33:15;;;;;;;9.05;5.42;;;;;;;17.76;41.43;101694.25;1824211;78;20864;-90
2022/10/14 11:36:19;;;;;;;8.13;4.83;;;;;;;17.58;40.74;101686.28;1823526;78;20884;-90
2022/10/14 11:39:13;;;;;;;11.40;4.85;;;;;;;17.39;41.70;101682.32;1824491;78;20903;-87
2022/10/14 11:42:01;;;;;;;12.58;5.45;;;;;;;17.24;41.84;101690.05;1824501;78;20832;-91
2022/10/14 11:44:36;;;;;;;9.98;5.80;;;;;;;17.05;41.96;101679.03;1820707;78;21441;-92
2022/10/14 11:47:25;;;;;;;10.48;6.25;;;;;;;16.91;41.92;101678.20;1824101;78;21022;-91
2022/10/14 11:50:23;;;;;;;10.40;5.75;;;;;;;16.83;42.23;101677.04;1822698;78;20880;-93
2022/10/14 11:53:19;;;;;;;11.35;5.42;;;;;;;16.74;41.97;101675.84;1782922;77;20970;-92
2022/10/14 11:55:58;;;;;;;9.03;5.75;;;;;;;16.61;41.84;101674.98;1754957;80;20829;-90
2022/10/14 11:58:27;;;;;;;8.90;6.20;;;;;;;16.40;42.33;101674.19;1782933;80;20828;-90